Time;durP1;ratioP1;P1;durP2;ratioP2;P2;SDS_P1;SDS_P2;PMS_P1;PMS_P2;Temp;Humidity;BMP_temperature;BMP_pressure;BME280_temperature;BME280_humidity;BME280_pressure;Samples;Min_cycle;Max_cycle;Signal;HPM_P1;HPM_P2
2022/04/22 00:01:08;;;;;;;;;;;12.20;99.90;;;;;;5054628;28;20141;-75
2022/04/22 00:03:34;;;;;;;;;;;12.20;99.90;;;;;;5054676;28;19962;-75
2022/04/22 00:06:00;;;;;;;;;;;12.20;99.90;;;;;;5054595;28;19916;-74
2022/04/22 00:08:25;;;;;;;;;;;12.20;99.90;;;;;;5054675;28;19909;-75
2022/04/22 00:13:35;;;;;;;;;;;12.20;99.90;;;;;;5055011;28;19911;-74
2022/04/22 00:16:02;;;;;;;;;;;12.10;99.90;;;;;;5054332;28;19999;-75
2022/04/22 00:18:27;;;;;;;;;;;12.10;99.90;;;;;;5054255;28;19909;-74
2022/04/22 00:20:53;;;;;;;;;;;12.00;99.90;;;;;;5053243;28;20068;-75
2022/04/22 00:23:19;;;;;;;;;;;12.10;99.90;;;;;;5054269;28;19908;-74
2022/04/22 00:25:44;;;;;;;;;;;12.10;99.90;;;;;;5054516;28;19928;-74
2022/04/22 00:28:10;;;;;;;;;;;12.00;99.90;;;;;;5054235;28;20389;-73
2022/04/22 00:30:35;;;;;;;;;;;12.00;99.90;;;;;;5054127;28;19916;-74
2022/04/22 00:33:01;;;;;;;;;;;11.90;99.90;;;;;;5053988;28;19999;-75
2022/04/22 00:35:27;;;;;;;;;;;11.90;99.90;;;;;;5054027;28;19909;-75
2022/04/22 00:37:53;;;;;;;;;;;11.90;99.90;;;;;;5053725;28;20334;-74
2022/04/22 00:40:18;;;;;;;;;;;11.90;99.90;;;;;;5054413;28;20311;-73
2022/04/22 00:42:44;;;;;;;;;;;11.90;99.90;;;;;;5052727;28;19975;-74
2022/04/22 00:45:10;;;;;;;;;;;11.80;99.90;;;;;;5052632;28;19916;-75
2022/04/22 00:47:36;;;;;;;;;;;11.80;99.90;;;;;;5053895;28;20408;-74
2022/04/22 00:50:01;;;;;;;;;;;11.80;99.90;;;;;;5053546;28;19905;-75
2022/04/22 00:52:27;;;;;;;;;;;11.80;99.90;;;;;;5054178;28;19905;-74
2022/04/22 00:54:53;;;;;;;;;;;11.80;99.90;;;;;;5053734;28;19936;-75
2022/04/22 00:57:19;;;;;;;;;;;11.80;99.90;;;;;;5053489;28;19936;-75
2022/04/22 00:59:45;;;;;;;;;;;11.80;99.90;;;;;;5053744;28;19985;-75
2022/04/22 01:02:11;;;;;;;;;;;11.70;99.90;;;;;;5053602;28;19942;-75
2022/04/22 01:10:26;;;;;;;;;;;11.50;99.90;;;;;;4953203;29;19917;-75
2022/04/22 01:12:52;;;;;;;;;;;11.60;99.90;;;;;;5001215;28;20270;-74
2022/04/22 01:15:17;;;;;;;;;;;11.60;99.90;;;;;;5045647;28;19934;-74
2022/04/22 01:17:44;;;;;;;;;;;11.60;99.90;;;;;;5052293;28;19920;-74
2022/04/22 01:20:10;;;;;;;;;;;11.60;99.90;;;;;;5053215;28;19999;-73
2022/04/22 01:22:36;;;;;;;;;;;11.60;99.90;;;;;;5053536;28;20000;-73
2022/04/22 01:25:02;;;;;;;;;;;11.50;99.90;;;;;;5052923;28;19913;-75
2022/04/22 01:27:30;;;;;;;;;;;11.60;99.90;;;;;;5052994;28;19908;-75
2022/04/22 01:29:57;;;;;;;;;;;11.50;99.90;;;;;;5053223;28;19958;-75
2022/04/22 01:32:23;;;;;;;;;;;11.50;99.90;;;;;;5052995;28;19908;-74
2022/04/22 01:34:48;;;;;;;;;;;11.50;99.90;;;;;;5052785;28;20110;-73
2022/04/22 01:37:13;;;;;;;;;;;11.40;99.90;;;;;;5053026;28;19971;-74
2022/04/22 01:39:39;;;;;;;;;;;11.50;99.90;;;;;;5052828;28;19913;-74
2022/04/22 01:42:06;;;;;;;;;;;11.60;99.90;;;;;;5052751;28;19916;-74
2022/04/22 01:44:32;;;;;;;;;;;11.60;99.90;;;;;;5052989;28;20271;-74
2022/04/22 01:46:57;;;;;;;;;;;11.60;99.90;;;;;;5052697;28;19905;-74
2022/04/22 01:49:23;;;;;;;;;;;11.60;99.90;;;;;;5053002;28;20008;-74
2022/04/22 01:51:48;;;;;;;;;;;11.50;99.90;;;;;;5051626;28;19940;-74
2022/04/22 01:54:15;;;;;;;;;;;11.50;99.90;;;;;;5052333;28;19916;-74
2022/04/22 01:56:40;;;;;;;;;;;11.50;99.90;;;;;;5052336;28;19909;-75
2022/04/22 01:59:06;;;;;;;;;;;11.50;99.90;;;;;;5052334;28;20250;-74
2022/04/22 02:01:32;;;;;;;;;;;11.50;99.90;;;;;;5051694;28;19905;-75
2022/04/22 02:03:57;;;;;;;;;;;11.50;99.90;;;;;;5052394;28;19951;-75
2022/04/22 02:06:23;;;;;;;;;;;11.50;99.90;;;;;;5052292;28;19963;-75
2022/04/22 02:08:48;;;;;;;;;;;11.50;99.90;;;;;;5052251;28;19908;-74
2022/04/22 02:11:14;;;;;;;;;;;11.50;99.90;;;;;;5052180;28;20361;-72
2022/04/22 02:13:40;;;;;;;;;;;11.50;99.90;;;;;;5052602;28;20254;-74
2022/04/22 02:16:07;;;;;;;;;;;11.50;99.90;;;;;;5052089;28;19909;-74
2022/04/22 02:18:36;;;;;;;;;;;11.50;99.90;;;;;;5052166;28;20417;-74
2022/04/22 02:21:11;;;;;;;;;;;11.50;99.90;;;;;;5052057;28;19908;-74
2022/04/22 02:23:37;;;;;;;;;;;11.50;99.90;;;;;;5051982;28;20262;-74
2022/04/22 02:26:05;;;;;;;;;;;11.50;99.90;;;;;;5051865;28;19908;-75
2022/04/22 02:28:33;;;;;;;;;;;11.50;99.90;;;;;;5051446;28;19980;-75
2022/04/22 02:31:00;;;;;;;;;;;11.50;99.90;;;;;;5051984;28;19978;-75
2022/04/22 02:33:25;;;;;;;;;;;11.60;99.90;;;;;;5051909;28;19924;-73
2022/04/22 02:35:51;;;;;;;;;;;11.60;99.90;;;;;;5051939;28;19908;-74
2022/04/22 02:38:16;;;;;;;;;;;11.60;99.90;;;;;;5051501;28;19921;-74
2022/04/22 02:46:10;;;;;;;;;;;11.60;99.70;;;;;;5052074;28;19927;-74
2022/04/22 02:48:35;;;;;;;;;;;11.50;99.40;;;;;;5051673;28;20433;-74
2022/04/22 02:51:01;;;;;;;;;;;11.50;99.30;;;;;;5051726;28;19913;-74
2022/04/22 02:53:26;;;;;;;;;;;11.50;99.10;;;;;;5051511;28;20322;-75
2022/04/22 02:55:52;;;;;;;;;;;11.50;99.00;;;;;;5051394;28;19909;-74
2022/04/22 02:58:18;;;;;;;;;;;11.50;98.90;;;;;;5051998;28;19904;-74
2022/04/22 03:00:44;;;;;;;;;;;11.50;98.70;;;;;;5050257;28;19909;-75
2022/04/22 03:03:09;;;;;;;;;;;11.50;98.60;;;;;;5051509;28;19923;-74
2022/04/22 03:05:35;;;;;;;;;;;11.50;98.60;;;;;;5050732;28;19927;-76
2022/04/22 03:08:01;;;;;;;;;;;11.50;98.50;;;;;;5051076;28;19999;-75
2022/04/22 03:10:27;;;;;;;;;;;11.40;98.30;;;;;;5051949;28;19904;-75
2022/04/22 03:12:52;;;;;;;;;;;11.30;98.10;;;;;;5051244;28;19909;-75
2022/04/22 03:15:18;;;;;;;;;;;11.30;97.90;;;;;;5051386;28;20070;-75
2022/04/22 03:17:44;;;;;;;;;;;11.30;97.60;;;;;;5051434;28;19963;-75
2022/04/22 03:20:09;;;;;;;;;;;11.30;97.10;;;;;;5051578;28;19913;-76
2022/04/22 03:22:36;;;;;;;;;;;11.20;96.80;;;;;;5051903;28;19920;-75
2022/04/22 03:25:01;;;;;;;;;;;11.10;96.70;;;;;;5051175;28;20050;-76
2022/04/22 03:27:27;;;;;;;;;;;11.10;96.60;;;;;;5051050;28;20003;-75
2022/04/22 03:29:53;;;;;;;;;;;11.10;96.70;;;;;;5051412;28;19909;-74
2022/04/22 03:32:18;;;;;;;;;;;11.10;96.70;;;;;;5051150;28;19983;-75
2022/04/22 03:34:43;;;;;;;;;;;11.00;96.70;;;;;;5051609;28;20425;-76
2022/04/22 03:37:09;;;;;;;;;;;11.00;96.80;;;;;;5050740;28;20261;-75
2022/04/22 03:39:34;;;;;;;;;;;10.90;96.10;;;;;;5049892;28;19932;-75
2022/04/22 03:42:00;;;;;;;;;;;10.90;96.10;;;;;;5051047;28;19992;-75
2022/04/22 03:44:26;;;;;;;;;;;10.90;96.10;;;;;;5051055;28;20357;-75
2022/04/22 03:46:52;;;;;;;;;;;10.90;95.90;;;;;;5050940;28;19905;-74
2022/04/22 03:49:17;;;;;;;;;;;11.00;95.90;;;;;;5051895;28;19973;-75
2022/04/22 03:51:43;;;;;;;;;;;11.00;95.90;;;;;;5051135;28;20270;-75
2022/04/22 03:54:08;;;;;;;;;;;10.90;95.80;;;;;;5050869;28;20376;-75
2022/04/22 03:59:18;;;;;;;;;;;10.90;95.80;;;;;;5050762;28;20258;-75
2022/04/22 04:01:44;;;;;;;;;;;11.00;95.90;;;;;;5051221;28;19904;-75
2022/04/22 04:04:09;;;;;;;;;;;11.00;95.80;;;;;;5051000;28;19912;-75
2022/04/22 04:06:35;;;;;;;;;;;11.00;95.90;;;;;;5049740;28;19931;-75
2022/04/22 04:17:18;;;;;;;;;;;10.90;95.70;;;;;;5032081;28;19909;-75
2022/04/22 04:25:11;;;;;;;;;;;10.60;95.40;;;;;;5054525;28;20392;-76
2022/04/22 04:27:36;;;;;;;;;;;10.60;95.30;;;;;;5054269;28;19916;-76
2022/04/22 04:30:05;;;;;;;;;;;10.60;95.20;;;;;;5054377;28;19976;-76
2022/04/22 04:32:31;;;;;;;;;;;10.60;95.20;;;;;;5054154;28;19908;-76
2022/04/22 04:34:56;;;;;;;;;;;10.50;95.20;;;;;;5052952;28;20004;-76
2022/04/22 04:37:22;;;;;;;;;;;10.50;95.10;;;;;;5054303;28;19944;-76
2022/04/22 04:39:47;;;;;;;;;;;10.50;95.10;;;;;;5054124;28;20057;-76
2022/04/22 04:42:13;;;;;;;;;;;10.40;95.10;;;;;;5054016;28;19915;-75
2022/04/22 04:44:38;;;;;;;;;;;10.30;94.90;;;;;;5053881;28;19999;-76
2022/04/22 04:47:04;;;;;;;;;;;10.20;94.80;;;;;;5054069;28;20358;-76
2022/04/22 04:49:29;;;;;;;;;;;10.20;94.90;;;;;;5054274;28;20007;-76
2022/04/22 04:51:57;;;;;;;;;;;10.20;94.90;;;;;;5053690;28;19983;-76
2022/04/22 04:54:23;;;;;;;;;;;10.10;95.00;;;;;;5053720;28;20211;-76
2022/04/22 04:56:48;;;;;;;;;;;10.10;95.00;;;;;;5053719;28;19991;-76
2022/04/22 04:59:14;;;;;;;;;;;10.10;94.90;;;;;;5053504;28;20327;-75
2022/04/22 05:01:39;;;;;;;;;;;10.10;94.90;;;;;;5054148;28;19920;-76
2022/04/22 05:04:05;;;;;;;;;;;10.10;94.90;;;;;;5053473;28;19913;-75
2022/04/22 05:06:30;;;;;;;;;;;10.10;94.80;;;;;;5053444;28;20106;-76
2022/04/22 05:08:56;;;;;;;;;;;10.10;94.70;;;;;;5053310;28;19913;-76
2022/04/22 05:11:22;;;;;;;;;;;10.10;94.70;;;;;;5053223;28;19928;-76
2022/04/22 05:13:47;;;;;;;;;;;10.10;94.70;;;;;;5053209;28;19916;-74
2022/04/22 05:16:13;;;;;;;;;;;10.20;94.60;;;;;;5053739;28;19901;-76
2022/04/22 05:18:40;;;;;;;;;;;10.20;94.60;;;;;;5053116;28;20380;-75
2022/04/22 05:21:05;;;;;;;;;;;10.20;94.50;;;;;;5052971;28;20346;-76
2022/04/22 05:23:31;;;;;;;;;;;10.30;94.50;;;;;;5052976;28;19940;-74
2022/04/22 05:25:56;;;;;;;;;;;10.30;94.50;;;;;;5053120;28;19956;-75
2022/04/22 05:28:22;;;;;;;;;;;10.30;94.50;;;;;;5053415;28;19905;-76
2022/04/22 05:33:31;;;;;;;;;;;10.50;94.50;;;;;;5053036;28;20372;-75
2022/04/22 05:35:57;;;;;;;;;;;10.50;94.30;;;;;;5052751;28;19932;-75
2022/04/22 05:38:24;;;;;;;;;;;10.60;94.30;;;;;;5052302;28;20018;-76
2022/04/22 05:40:49;;;;;;;;;;;10.60;94.10;;;;;;5053065;28;20328;-76
2022/04/22 05:43:15;;;;;;;;;;;10.60;94.10;;;;;;5053029;28;19909;-76
2022/04/22 05:45:40;;;;;;;;;;;10.60;94.10;;;;;;5051552;28;20140;-75
2022/04/22 05:48:06;;;;;;;;;;;10.60;94.10;;;;;;5052561;28;20299;-76
2022/04/22 05:50:32;;;;;;;;;;;10.50;94.00;;;;;;5051359;28;19909;-76
2022/04/22 05:52:57;;;;;;;;;;;10.50;94.00;;;;;;5052154;28;20278;-76
2022/04/22 05:55:24;;;;;;;;;;;10.50;94.10;;;;;;5052640;28;19991;-76
2022/04/22 05:57:50;;;;;;;;;;;10.40;94.00;;;;;;5052419;28;20023;-75
2022/04/22 06:00:18;;;;;;;;;;;10.40;94.10;;;;;;5052310;28;19923;-75
2022/04/22 06:02:44;;;;;;;;;;;10.30;94.20;;;;;;5052486;28;19931;-76
2022/04/22 06:05:10;;;;;;;;;;;10.30;94.30;;;;;;5052186;28;19917;-77
2022/04/22 06:07:36;;;;;;;;;;;10.40;94.30;;;;;;5052590;28;19908;-76
2022/04/22 06:12:47;;;;;;;;;;;10.50;94.20;;;;;;5052203;28;19920;-76
2022/04/22 06:15:12;;;;;;;;;;;10.50;94.10;;;;;;5052149;28;19909;-76
2022/04/22 06:17:37;;;;;;;;;;;10.40;94.10;;;;;;5052007;28;19963;-75
2022/04/22 06:20:06;;;;;;;;;;;10.40;94.20;;;;;;5051968;28;19904;-76
2022/04/22 06:22:32;;;;;;;;;;;10.40;94.20;;;;;;5052348;28;19937;-76
2022/04/22 06:24:58;;;;;;;;;;;10.40;94.20;;;;;;5050748;28;19936;-76
2022/04/22 06:27:27;;;;;;;;;;;10.50;94.20;;;;;;5050680;28;19967;-76
2022/04/22 06:29:54;;;;;;;;;;;10.40;94.20;;;;;;5050614;28;19908;-76
2022/04/22 06:32:22;;;;;;;;;;;10.30;94.20;;;;;;5051654;28;19920;-76
2022/04/22 06:34:48;;;;;;;;;;;10.30;94.30;;;;;;5051395;28;19924;-75
2022/04/22 06:37:14;;;;;;;;;;;10.40;94.40;;;;;;5051806;28;19921;-76
2022/04/22 06:47:53;;;;;;;;;;;10.70;94.00;;;;;;5051561;28;20002;-75
2022/04/22 06:50:19;;;;;;;;;;;10.80;94.00;;;;;;5051350;28;19952;-76
2022/04/22 06:52:47;;;;;;;;;;;10.90;94.00;;;;;;5051936;28;19913;-75
2022/04/22 06:55:22;;;;;;;;;;;11.00;93.90;;;;;;5051487;28;19909;-76
2022/04/22 06:57:51;;;;;;;;;;;11.10;93.80;;;;;;5051424;28;19916;-74
2022/04/22 07:00:18;;;;;;;;;;;11.10;93.50;;;;;;5051174;28;19939;-75
2022/04/22 07:02:44;;;;;;;;;;;11.10;93.60;;;;;;5051252;28;19916;-74
2022/04/22 07:05:09;;;;;;;;;;;11.20;93.40;;;;;;5051043;28;19916;-75
2022/04/22 07:07:35;;;;;;;;;;;11.30;93.30;;;;;;5050346;28;20616;-75
2022/04/22 07:10:01;;;;;;;;;;;11.30;93.30;;;;;;5051175;28;19979;-76
2022/04/22 07:12:27;;;;;;;;;;;11.40;93.20;;;;;;5050255;28;19909;-75
2022/04/22 07:15:05;;;;;;;;;;;11.50;93.10;;;;;;5051078;28;20003;-77
2022/04/22 07:17:30;;;;;;;;;;;11.40;93.20;;;;;;5051223;28;19912;-75
2022/04/22 07:19:56;;;;;;;;;;;11.50;93.20;;;;;;5051110;28;19905;-75
2022/04/22 07:22:21;;;;;;;;;;;11.60;93.00;;;;;;5051279;28;19913;-75
2022/04/22 07:24:49;;;;;;;;;;;11.80;93.00;;;;;;5051169;28;19912;-74
2022/04/22 07:27:16;;;;;;;;;;;11.90;92.70;;;;;;5050722;28;20011;-74
2022/04/22 07:29:41;;;;;;;;;;;12.00;92.40;;;;;;5050030;28;19909;-75
2022/04/22 07:32:07;;;;;;;;;;;12.00;92.30;;;;;;5050776;28;19916;-76
2022/04/22 07:34:33;;;;;;;;;;;12.20;92.30;;;;;;5051283;28;19905;-76
2022/04/22 07:37:00;;;;;;;;;;;12.80;91.80;;;;;;5050699;28;19909;-75
2022/04/22 07:39:25;;;;;;;;;;;13.50;91.10;;;;;;5051008;28;19917;-75
2022/04/22 07:41:51;;;;;;;;;;;14.10;90.10;;;;;;5049739;28;19920;-75
2022/04/22 07:47:08;;;;;;;;;;;15.40;87.20;;;;;;5051081;28;19920;-76
2022/04/22 07:49:33;;;;;;;;;;;16.40;84.10;;;;;;5050171;28;19905;-75
2022/04/22 07:51:59;;;;;;;;;;;17.10;81.00;;;;;;5051144;28;19920;-75
2022/04/22 07:54:24;;;;;;;;;;;17.50;78.70;;;;;;5054804;28;20398;-76
2022/04/22 07:56:50;;;;;;;;;;;17.90;77.40;;;;;;5054415;28;19913;-75
2022/04/22 07:59:15;;;;;;;;;;;18.00;76.20;;;;;;5054532;28;20389;-75
2022/04/22 08:01:41;;;;;;;;;;;17.60;75.50;;;;;;5055091;28;19905;-75
2022/04/22 08:04:09;;;;;;;;;;;17.20;76.20;;;;;;5053385;28;19916;-75
2022/04/22 08:06:35;;;;;;;;;;;17.60;75.90;;;;;;5054339;28;19932;-75
2022/04/22 08:09:00;;;;;;;;;;;18.20;74.50;;;;;;5054387;28;19913;-76
2022/04/22 08:11:26;;;;;;;;;;;18.10;73.50;;;;;;5054421;28;20354;-76
2022/04/22 08:13:51;;;;;;;;;;;17.70;73.20;;;;;;5054359;28;20583;-75
2022/04/22 08:16:17;;;;;;;;;;;17.30;74.40;;;;;;5054613;28;19901;-76
2022/04/22 08:18:42;;;;;;;;;;;17.50;74.80;;;;;;5053140;28;19913;-76
2022/04/22 08:21:08;;;;;;;;;;;18.10;73.10;;;;;;5054509;28;19924;-76
2022/04/22 08:23:34;;;;;;;;;;;18.50;72.50;;;;;;5054273;28;19909;-74
2022/04/22 08:26:00;;;;;;;;;;;18.80;70.30;;;;;;5054082;28;19920;-76
2022/04/22 08:28:25;;;;;;;;;;;18.60;70.20;;;;;;5054538;28;19908;-75
2022/04/22 08:30:51;;;;;;;;;;;18.70;70.10;;;;;;5054101;28;20219;-75
2022/04/22 08:33:16;;;;;;;;;;;18.20;70.70;;;;;;5054065;28;19932;-75
2022/04/22 08:35:42;;;;;;;;;;;17.70;71.10;;;;;;5053893;28;20300;-75
2022/04/22 08:38:07;;;;;;;;;;;17.20;72.40;;;;;;5053522;28;19939;-76
2022/04/22 08:40:35;;;;;;;;;;;16.70;73.30;;;;;;5054180;28;19909;-75
2022/04/22 08:43:01;;;;;;;;;;;16.20;74.30;;;;;;5053832;28;20011;-77
2022/04/22 08:45:28;;;;;;;;;;;16.20;75.00;;;;;;5053738;28;19920;-75
2022/04/22 08:50:40;;;;;;;;;;;16.40;75.10;;;;;;5053693;28;19919;-75
2022/04/22 08:53:06;;;;;;;;;;;16.30;75.40;;;;;;5053558;28;20070;-76
2022/04/22 08:55:34;;;;;;;;;;;16.30;75.90;;;;;;5053985;28;19940;-76
2022/04/22 08:58:00;;;;;;;;;;;17.30;74.80;;;;;;5053558;28;20662;-75
2022/04/22 09:00:29;;;;;;;;;;;18.30;72.60;;;;;;5053147;28;19960;-76
2022/04/22 09:02:55;;;;;;;;;;;19.40;70.60;;;;;;5052209;28;20015;-75
2022/04/22 09:05:20;;;;;;;;;;;20.20;67.10;;;;;;5052469;28;20063;-75
2022/04/22 09:07:46;;;;;;;;;;;20.50;65.50;;;;;;5052481;28;19951;-76
2022/04/22 09:10:12;;;;;;;;;;;21.30;63.50;;;;;;5052076;28;19909;-77
2022/04/22 09:12:40;;;;;;;;;;;21.90;61.70;;;;;;5053294;28;19919;-76
2022/04/22 09:15:07;;;;;;;;;;;22.60;61.40;;;;;;5053117;28;20259;-74
2022/04/22 09:17:33;;;;;;;;;;;23.30;58.60;;;;;;5051918;28;20410;-75
2022/04/22 09:20:01;;;;;;;;;;;23.70;56.90;;;;;;5052848;28;19995;-76
2022/04/22 09:22:28;;;;;;;;;;;24.10;56.00;;;;;;5053390;28;19901;-74
2022/04/22 09:24:55;;;;;;;;;;;24.40;55.10;;;;;;5052930;28;19935;-75
2022/04/22 09:27:30;;;;;;;;;;;25.00;53.90;;;;;;5051826;28;20007;-75
2022/04/22 09:29:56;;;;;;;;;;;25.40;52.80;;;;;;5052847;28;19916;-74
2022/04/22 09:32:25;;;;;;;;;;;25.60;51.30;;;;;;5051588;28;19920;-75
2022/04/22 09:34:51;;;;;;;;;;;25.60;51.00;;;;;;5052583;28;20077;-75
2022/04/22 09:42:47;;;;;;;;;;;25.90;50.20;;;;;;5052563;28;20300;-75
2022/04/22 09:45:13;;;;;;;;;;;26.30;49.10;;;;;;5052378;28;19912;-74
2022/04/22 09:47:40;;;;;;;;;;;26.40;48.50;;;;;;5052508;28;20330;-74
2022/04/22 09:50:10;;;;;;;;;;;26.70;48.00;;;;;;5051264;28;19936;-74
2022/04/22 09:52:36;;;;;;;;;;;26.80;47.80;;;;;;5052621;28;19904;-75
2022/04/22 09:55:03;;;;;;;;;;;26.90;47.00;;;;;;5052396;28;19919;-76
2022/04/22 09:57:48;;;;;;;;;;;27.00;46.90;;;;;;5052389;28;19909;-74
2022/04/22 10:00:15;;;;;;;;;;;27.60;45.70;;;;;;5052358;28;19909;-75
2022/04/22 10:02:41;;;;;;;;;;;27.70;45.80;;;;;;5052377;28;19999;-76
2022/04/22 10:05:07;;;;;;;;;;;27.80;45.30;;;;;;5051898;28;19909;-75
2022/04/22 10:07:32;;;;;;;;;;;27.60;44.80;;;;;;5051576;28;19905;-75
2022/04/22 10:10:01;;;;;;;;;;;27.90;44.40;;;;;;5051909;28;19909;-75
2022/04/22 10:12:27;;;;;;;;;;;27.90;44.60;;;;;;5052322;28;19958;-74
2022/04/22 10:14:56;;;;;;;;;;;27.90;43.90;;;;;;5051916;28;19935;-75
2022/04/22 10:17:22;;;;;;;;;;;27.50;44.20;;;;;;5051744;28;19908;-75
2022/04/22 10:19:48;;;;;;;;;;;26.90;45.30;;;;;;5051861;28;19991;-75
2022/04/22 10:22:15;;;;;;;;;;;26.70;45.20;;;;;;5052233;28;20023;-75
2022/04/22 10:24:40;;;;;;;;;;;25.90;45.90;;;;;;5051670;28;19912;-73
2022/04/22 10:27:07;;;;;;;;;;;25.10;46.90;;;;;;5051909;28;19963;-74
2022/04/22 10:29:33;;;;;;;;;;;24.10;48.00;;;;;;5051564;28;19908;-74
2022/04/22 10:31:59;;;;;;;;;;;23.40;49.00;;;;;;5050752;28;19920;-74
2022/04/22 10:34:38;;;;;;;;;;;23.00;49.80;;;;;;5052171;28;19943;-75
2022/04/22 10:37:04;;;;;;;;;;;22.60;50.70;;;;;;5051397;28;19909;-74
2022/04/22 10:39:34;;;;;;;;;;;22.20;51.10;;;;;;5051341;28;19986;-74
2022/04/22 10:41:59;;;;;;;;;;;22.20;51.70;;;;;;5051573;28;19917;-74
2022/04/22 10:47:15;;;;;;;;;;;22.10;51.90;;;;;;5051578;28;19923;-75
2022/04/22 10:49:44;;;;;;;;;;;22.00;51.90;;;;;;5051789;28;19908;-75
2022/04/22 10:52:10;;;;;;;;;;;21.50;52.40;;;;;;5051265;28;19955;-75
2022/04/22 10:54:50;;;;;;;;;;;21.20;53.20;;;;;;5050186;28;19952;-74
2022/04/22 10:57:17;;;;;;;;;;;21.00;53.80;;;;;;5051231;28;19913;-75
2022/04/22 10:59:42;;;;;;;;;;;20.70;54.40;;;;;;5050356;28;20289;-73
2022/04/22 11:02:29;;;;;;;;;;;20.50;55.00;;;;;;5051377;28;19908;-75
2022/04/22 11:05:13;;;;;;;;;;;20.40;55.50;;;;;;5050100;28;19966;-73
2022/04/22 11:07:51;;;;;;;;;;;20.40;55.80;;;;;;5051454;28;19901;-74
2022/04/22 11:10:20;;;;;;;;;;;20.50;56.00;;;;;;5051112;28;19908;-74
2022/04/22 11:12:58;;;;;;;;;;;20.10;56.20;;;;;;5051021;28;20000;-74
2022/04/22 11:15:42;;;;;;;;;;;19.90;57.00;;;;;;5050975;28;19909;-74
2022/04/22 11:18:12;;;;;;;;;;;19.70;57.40;;;;;;5050915;28;19956;-73
2022/04/22 11:20:44;;;;;;;;;;;19.60;57.90;;;;;;5050935;28;19919;-72
2022/04/22 11:23:13;;;;;;;;;;;19.80;58.10;;;;;;5050924;28;19913;-74
2022/04/22 11:25:40;;;;;;;;;;;19.90;58.00;;;;;;5051293;28;19909;-73
2022/04/22 11:28:06;;;;;;;;;;;19.70;58.20;;;;;;5053209;28;19916;-74
2022/04/22 11:30:32;;;;;;;;;;;19.70;58.50;;;;;;5055229;28;19908;-74
2022/04/22 11:33:18;;;;;;;;;;;19.80;58.70;;;;;;5054999;28;19970;-74
2022/04/22 11:35:45;;;;;;;;;;;19.80;58.60;;;;;;5046648;28;19916;-74
2022/04/22 11:38:11;;;;;;;;;;;19.80;58.60;;;;;;5054507;28;19924;-73
2022/04/22 11:40:40;;;;;;;;;;;19.60;58.80;;;;;;5054347;28;19905;-73
2022/04/22 11:43:06;;;;;;;;;;;19.70;59.20;;;;;;5054993;28;20257;-73
2022/04/22 11:45:34;;;;;;;;;;;19.70;59.20;;;;;;5054896;28;19923;-75
2022/04/22 11:48:06;;;;;;;;;;;19.60;59.30;;;;;;5054713;28;19912;-74
2022/04/22 11:50:35;;;;;;;;;;;19.20;60.00;;;;;;5054784;28;20425;-73
2022/04/22 11:53:01;;;;;;;;;;;19.00;60.40;;;;;;5054591;28;19905;-74
2022/04/22 11:55:26;;;;;;;;;;;18.70;61.10;;;;;;5054764;28;20333;-74
2022/04/22 11:57:52;;;;;;;;;;;18.90;61.60;;;;;;5054788;28;20394;-73
2022/04/22 12:05:49;;;;;;;;;;;19.40;61.40;;;;;;5054358;28;19973;-73
2022/04/22 12:08:15;;;;;;;;;;;19.40;61.30;;;;;;5053337;28;19997;-73
2022/04/22 12:10:48;;;;;;;;;;;19.10;61.80;;;;;;5053787;28;19999;-74
2022/04/22 12:13:14;;;;;;;;;;;19.00;62.00;;;;;;5053351;28;19959;-73
2022/04/22 12:15:42;;;;;;;;;;;18.90;62.50;;;;;;5054504;28;19920;-74
2022/04/22 12:18:08;;;;;;;;;;;18.70;62.80;;;;;;5053126;28;19912;-75
2022/04/22 12:20:33;;;;;;;;;;;18.50;63.60;;;;;;5054398;28;19967;-75
2022/04/22 12:23:00;;;;;;;;;;;18.10;64.30;;;;;;5053872;28;20317;-74
2022/04/22 12:25:25;;;;;;;;;;;18.10;64.80;;;;;;5054463;28;19924;-74
2022/04/22 12:28:04;;;;;;;;;;;18.10;65.10;;;;;;5054028;28;19909;-73
2022/04/22 12:30:37;;;;;;;;;;;18.10;65.20;;;;;;5054015;28;20318;-75
2022/04/22 12:33:03;;;;;;;;;;;18.00;65.00;;;;;;5052758;28;20377;-74
2022/04/22 12:35:28;;;;;;;;;;;17.80;65.50;;;;;;5052569;28;19940;-74
2022/04/22 12:37:56;;;;;;;;;;;17.60;66.20;;;;;;5053387;28;20250;-74
2022/04/22 12:40:22;;;;;;;;;;;17.70;66.40;;;;;;5052946;28;19916;-75
2022/04/22 12:42:48;;;;;;;;;;;17.60;66.40;;;;;;5053810;28;19909;-74
2022/04/22 12:53:41;;;;;;;;;;;17.30;66.60;;;;;;5053867;28;19919;-73
2022/04/22 12:56:08;;;;;;;;;;;17.40;67.30;;;;;;5053607;28;19970;-74
2022/04/22 12:58:50;;;;;;;;;;;17.50;67.80;;;;;;5054013;28;19908;-74
2022/04/22 13:01:39;;;;;;;;;;;17.60;66.50;;;;;;5053517;28;19936;-74
2022/04/22 13:04:05;;;;;;;;;;;17.70;66.50;;;;;;5053452;28;19913;-74
2022/04/22 13:06:50;;;;;;;;;;;17.90;66.20;;;;;;5053135;28;20326;-75
2022/04/22 13:09:16;;;;;;;;;;;17.80;65.90;;;;;;5053229;28;19917;-75
2022/04/22 13:11:42;;;;;;;;;;;17.80;65.70;;;;;;5053070;28;20532;-74
2022/04/22 13:14:08;;;;;;;;;;;17.80;66.60;;;;;;5053263;28;19974;-74
2022/04/22 13:16:34;;;;;;;;;;;17.90;66.10;;;;;;5052449;28;19908;-74
2022/04/22 13:19:00;;;;;;;;;;;18.10;65.70;;;;;;5051864;28;19913;-74
2022/04/22 13:21:26;;;;;;;;;;;18.10;65.50;;;;;;5053093;28;19921;-74
2022/04/22 13:23:52;;;;;;;;;;;18.10;64.40;;;;;;5053174;28;19935;-74
2022/04/22 13:26:17;;;;;;;;;;;18.10;64.40;;;;;;5052707;28;20345;-75
2022/04/22 13:28:43;;;;;;;;;;;18.10;63.70;;;;;;5053394;28;20254;-76
2022/04/22 13:31:08;;;;;;;;;;;18.00;63.20;;;;;;5052815;28;19970;-75
2022/04/22 13:33:34;;;;;;;;;;;18.10;63.70;;;;;;5052811;28;19916;-74
2022/04/22 13:36:08;;;;;;;;;;;18.10;63.10;;;;;;5052843;28;19917;-75
2022/04/22 13:38:35;;;;;;;;;;;18.10;62.70;;;;;;5051363;28;19921;-74
2022/04/22 13:41:06;;;;;;;;;;;18.10;62.70;;;;;;5051656;28;19909;-74
2022/04/22 13:43:32;;;;;;;;;;;18.00;62.40;;;;;;5052991;28;19900;-74
2022/04/22 13:54:10;;;;;;;;;;;17.60;63.00;;;;;;5052716;28;19974;-74
2022/04/22 13:56:36;;;;;;;;;;;17.70;63.70;;;;;;5052334;28;19916;-74
2022/04/22 13:59:01;;;;;;;;;;;17.80;63.60;;;;;;5052413;28;19905;-75
2022/04/22 14:01:27;;;;;;;;;;;17.90;63.50;;;;;;5052702;28;19969;-74
2022/04/22 14:03:52;;;;;;;;;;;17.90;62.90;;;;;;5052134;28;19975;-74
2022/04/22 14:06:18;;;;;;;;;;;17.80;62.80;;;;;;5052119;28;19928;-74
2022/04/22 14:08:43;;;;;;;;;;;17.70;62.90;;;;;;5051068;28;19909;-75
2022/04/22 14:11:09;;;;;;;;;;;17.70;62.60;;;;;;5052158;28;19962;-75
2022/04/22 14:13:34;;;;;;;;;;;17.50;62.10;;;;;;5052938;28;19919;-74
2022/04/22 14:16:00;;;;;;;;;;;17.30;62.50;;;;;;5050974;28;19913;-75
2022/04/22 14:18:31;;;;;;;;;;;17.20;62.30;;;;;;5051832;28;20207;-75
2022/04/22 14:20:59;;;;;;;;;;;17.10;62.40;;;;;;5051923;28;19920;-74
2022/04/22 14:23:24;;;;;;;;;;;17.10;62.10;;;;;;5051872;28;20318;-75
2022/04/22 14:25:50;;;;;;;;;;;17.00;61.80;;;;;;5051895;28;19913;-73
2022/04/22 14:28:15;;;;;;;;;;;16.90;61.80;;;;;;5051274;28;19912;-75
2022/04/22 14:30:41;;;;;;;;;;;16.80;61.80;;;;;;5050753;28;19913;-75
2022/04/22 14:33:06;;;;;;;;;;;16.80;61.90;;;;;;5051790;28;19915;-75
2022/04/22 14:35:32;;;;;;;;;;;16.80;61.90;;;;;;5051690;28;19909;-74
2022/04/22 14:37:58;;;;;;;;;;;16.80;62.00;;;;;;5051270;28;19916;-73
2022/04/22 14:40:24;;;;;;;;;;;16.80;62.00;;;;;;5051116;28;20135;-74
2022/04/22 14:42:50;;;;;;;;;;;16.90;61.90;;;;;;5051619;28;19909;-76
2022/04/22 14:45:16;;;;;;;;;;;16.80;61.80;;;;;;5050331;28;19916;-74
2022/04/22 14:47:42;;;;;;;;;;;16.90;61.90;;;;;;5050542;28;19920;-75
2022/04/22 14:50:08;;;;;;;;;;;17.00;62.00;;;;;;5051205;28;19924;-75
2022/04/22 14:52:34;;;;;;;;;;;16.90;62.10;;;;;;5051734;28;19905;-74
2022/04/22 14:54:59;;;;;;;;;;;16.90;62.50;;;;;;5051205;28;19916;-74
2022/04/22 14:57:25;;;;;;;;;;;16.90;63.30;;;;;;5051315;28;20029;-75
2022/04/22 14:59:51;;;;;;;;;;;16.90;63.70;;;;;;5051637;28;20213;-74
2022/04/22 15:02:16;;;;;;;;;;;16.80;63.90;;;;;;5050510;28;19913;-74
2022/04/22 15:04:42;;;;;;;;;;;16.80;64.20;;;;;;5051501;28;19912;-74
2022/04/22 15:07:08;;;;;;;;;;;16.80;64.50;;;;;;5049888;28;19919;-74
2022/04/22 15:09:34;;;;;;;;;;;16.70;64.90;;;;;;5051063;28;19908;-74
2022/04/22 15:11:59;;;;;;;;;;;16.70;65.00;;;;;;5051044;28;19913;-74
2022/04/22 15:14:25;;;;;;;;;;;16.70;65.30;;;;;;5050982;28;20173;-74
2022/04/22 15:16:50;;;;;;;;;;;16.70;65.50;;;;;;5051033;28;19962;-76
2022/04/22 15:24:44;;;;;;;;;;;16.80;66.20;;;;;;5050946;28;19966;-74
2022/04/22 15:27:10;;;;;;;;;;;16.70;66.40;;;;;;5051002;28;19912;-76
2022/04/22 15:29:37;;;;;;;;;;;16.70;66.70;;;;;;5051002;28;20414;-75
2022/04/22 15:32:03;;;;;;;;;;;16.70;66.80;;;;;;5050157;28;19948;-74
2022/04/22 15:34:29;;;;;;;;;;;16.80;67.10;;;;;;5051727;28;19948;-74
2022/04/22 15:36:54;;;;;;;;;;;16.80;67.00;;;;;;5050754;28;19967;-75
2022/04/22 15:39:20;;;;;;;;;;;16.90;67.20;;;;;;5051234;28;19916;-74